sensor_id;sensor_type;location;lat;lon;timestamp;temperature;humidity
1680;DHT22;838;51.794;12.258;2022-10-22T00:01:55;15.30;86.20
1680;DHT22;838;51.794;12.258;2022-10-22T00:04:21;15.20;85.50
1680;DHT22;838;51.794;12.258;2022-10-22T00:06:46;15.10;85.90
1680;DHT22;838;51.794;12.258;2022-10-22T00:09:13;14.90;85.60
1680;DHT22;838;51.794;12.258;2022-10-22T00:11:39;14.60;88.70
1680;DHT22;838;51.794;12.258;2022-10-22T00:14:05;14.30;90.80
1680;DHT22;838;51.794;12.258;2022-10-22T00:16:31;14.20;92.00
1680;DHT22;838;51.794;12.258;2022-10-22T00:18:56;14.20;92.30
1680;DHT22;838;51.794;12.258;2022-10-22T00:21:22;14.30;92.20
1680;DHT22;838;51.794;12.258;2022-10-22T00:23:48;14.50;91.10
1680;DHT22;838;51.794;12.258;2022-10-22T00:26:15;14.40;90.70
1680;DHT22;838;51.794;12.258;2022-10-22T00:28:40;14.40;91.60
1680;DHT22;838;51.794;12.258;2022-10-22T00:31:06;14.60;90.50
1680;DHT22;838;51.794;12.258;2022-10-22T00:33:32;14.80;88.90
1680;DHT22;838;51.794;12.258;2022-10-22T00:35:58;14.90;87.00
1680;DHT22;838;51.794;12.258;2022-10-22T00:38:24;14.90;86.70
1680;DHT22;838;51.794;12.258;2022-10-22T00:40:49;14.80;87.90
1680;DHT22;838;51.794;12.258;2022-10-22T00:43:17;14.90;86.90
1680;DHT22;838;51.794;12.258;2022-10-22T00:45:43;15.10;86.20
1680;DHT22;838;51.794;12.258;2022-10-22T00:48:15;15.20;84.70
1680;DHT22;838;51.794;12.258;2022-10-22T00:51:00;14.90;82.80
1680;DHT22;838;51.794;12.258;2022-10-22T00:53:36;14.90;87.10
1680;DHT22;838;51.794;12.258;2022-10-22T00:56:03;15.10;84.70
1680;DHT22;838;51.794;12.258;2022-10-22T00:58:33;15.00;82.90
1680;DHT22;838;51.794;12.258;2022-10-22T01:01:00;14.60;86.40
1680;DHT22;838;51.794;12.258;2022-10-22T01:03:26;14.10;90.20
1680;DHT22;838;51.794;12.258;2022-10-22T01:05:57;13.60;92.20
1680;DHT22;838;51.794;12.258;2022-10-22T01:08:43;13.20;94.30
1680;DHT22;838;51.794;12.258;2022-10-22T01:13:54;13.00;96.60
1680;DHT22;838;51.794;12.258;2022-10-22T01:16:41;13.20;96.90
1680;DHT22;838;51.794;12.258;2022-10-22T01:19:31;13.30;97.00
1680;DHT22;838;51.794;12.258;2022-10-22T01:25:02;13.60;96.50
1680;DHT22;838;51.794;12.258;2022-10-22T01:30:16;14.10;95.30
1680;DHT22;838;51.794;12.258;2022-10-22T01:32:47;14.20;94.20
1680;DHT22;838;51.794;12.258;2022-10-22T01:35:20;14.20;93.50
1680;DHT22;838;51.794;12.258;2022-10-22T01:37:58;14.30;93.90
1680;DHT22;838;51.794;12.258;2022-10-22T01:40:26;14.30;93.60
1680;DHT22;838;51.794;12.258;2022-10-22T01:42:57;14.20;93.70
1680;DHT22;838;51.794;12.258;2022-10-22T01:45:24;14.20;94.30
1680;DHT22;838;51.794;12.258;2022-10-22T01:53:31;14.50;93.10
1680;DHT22;838;51.794;12.258;2022-10-22T02:04:26;14.40;93.50
1680;DHT22;838;51.794;12.258;2022-10-22T02:06:56;14.50;93.80
1680;DHT22;838;51.794;12.258;2022-10-22T02:09:25;14.50;93.40
1680;DHT22;838;51.794;12.258;2022-10-22T02:11:53;14.50;93.40
1680;DHT22;838;51.794;12.258;2022-10-22T02:14:20;14.60;93.80
1680;DHT22;838;51.794;12.258;2022-10-22T02:16:48;14.70;93.20
1680;DHT22;838;51.794;12.258;2022-10-22T02:19:36;14.90;92.70
1680;DHT22;838;51.794;12.258;2022-10-22T02:22:04;15.20;91.30
1680;DHT22;838;51.794;12.258;2022-10-22T02:24:30;15.30;90.00
1680;DHT22;838;51.794;12.258;2022-10-22T02:27:15;15.30;89.40
1680;DHT22;838;51.794;12.258;2022-10-22T02:32:56;14.70;91.70
1680;DHT22;838;51.794;12.258;2022-10-22T02:35:25;14.50;92.80
1680;DHT22;838;51.794;12.258;2022-10-22T02:37:52;14.50;93.30
1680;DHT22;838;51.794;12.258;2022-10-22T02:40:19;14.40;93.60
1680;DHT22;838;51.794;12.258;2022-10-22T02:42:46;14.30;93.70
1680;DHT22;838;51.794;12.258;2022-10-22T02:45:13;14.40;94.00
1680;DHT22;838;51.794;12.258;2022-10-22T02:47:40;14.50;93.50
1680;DHT22;838;51.794;12.258;2022-10-22T02:50:06;14.60;93.50
1680;DHT22;838;51.794;12.258;2022-10-22T02:52:32;14.60;93.60
1680;DHT22;838;51.794;12.258;2022-10-22T02:54:57;14.50;93.80
1680;DHT22;838;51.794;12.258;2022-10-22T02:57:23;14.40;94.10
1680;DHT22;838;51.794;12.258;2022-10-22T02:59:49;14.60;94.40
1680;DHT22;838;51.794;12.258;2022-10-22T03:02:14;14.70;93.50
1680;DHT22;838;51.794;12.258;2022-10-22T03:04:40;14.70;93.10
1680;DHT22;838;51.794;12.258;2022-10-22T03:07:06;14.70;93.10
1680;DHT22;838;51.794;12.258;2022-10-22T03:09:32;14.90;92.40
1680;DHT22;838;51.794;12.258;2022-10-22T03:11:58;15.10;91.80
1680;DHT22;838;51.794;12.258;2022-10-22T03:14:23;15.10;90.70
1680;DHT22;838;51.794;12.258;2022-10-22T03:16:49;15.30;90.80
1680;DHT22;838;51.794;12.258;2022-10-22T03:19:15;15.60;88.80
1680;DHT22;838;51.794;12.258;2022-10-22T03:22:01;15.70;87.60
1680;DHT22;838;51.794;12.258;2022-10-22T03:24:30;15.80;86.80
1680;DHT22;838;51.794;12.258;2022-10-22T03:26:58;15.80;86.30
1680;DHT22;838;51.794;12.258;2022-10-22T03:29:25;16.00;85.30
1680;DHT22;838;51.794;12.258;2022-10-22T03:31:52;16.10;83.20
1680;DHT22;838;51.794;12.258;2022-10-22T03:34:18;16.20;82.10
1680;DHT22;838;51.794;12.258;2022-10-22T03:36:44;16.20;81.90
1680;DHT22;838;51.794;12.258;2022-10-22T03:39:12;16.30;81.30
1680;DHT22;838;51.794;12.258;2022-10-22T03:41:39;16.30;81.10
1680;DHT22;838;51.794;12.258;2022-10-22T03:44:05;16.20;81.50
1680;DHT22;838;51.794;12.258;2022-10-22T03:46:31;16.30;81.50
1680;DHT22;838;51.794;12.258;2022-10-22T03:48:57;16.20;79.50
1680;DHT22;838;51.794;12.258;2022-10-22T03:51:24;16.40;79.90
1680;DHT22;838;51.794;12.258;2022-10-22T03:53:50;16.40;77.90
1680;DHT22;838;51.794;12.258;2022-10-22T03:56:16;16.20;78.10
1680;DHT22;838;51.794;12.258;2022-10-22T03:58:41;16.00;79.50
1680;DHT22;838;51.794;12.258;2022-10-22T04:01:10;15.90;80.00
1680;DHT22;838;51.794;12.258;2022-10-22T04:03:36;15.60;82.50
1680;DHT22;838;51.794;12.258;2022-10-22T04:06:05;15.30;85.90
1680;DHT22;838;51.794;12.258;2022-10-22T04:08:31;15.10;86.60
1680;DHT22;838;51.794;12.258;2022-10-22T04:10:57;14.90;89.00
1680;DHT22;838;51.794;12.258;2022-10-22T04:13:23;14.70;91.10
1680;DHT22;838;51.794;12.258;2022-10-22T04:15:49;14.80;91.70
1680;DHT22;838;51.794;12.258;2022-10-22T04:18:17;14.90;91.20
1680;DHT22;838;51.794;12.258;2022-10-22T04:20:43;14.90;91.00
1680;DHT22;838;51.794;12.258;2022-10-22T04:23:08;14.70;91.90
1680;DHT22;838;51.794;12.258;2022-10-22T04:25:34;14.80;92.40
1680;DHT22;838;51.794;12.258;2022-10-22T04:28:00;15.00;91.30
1680;DHT22;838;51.794;12.258;2022-10-22T04:30:26;15.10;90.00
1680;DHT22;838;51.794;12.258;2022-10-22T04:32:52;14.60;90.70
1680;DHT22;838;51.794;12.258;2022-10-22T04:35:17;14.10;93.40
1680;DHT22;838;51.794;12.258;2022-10-22T04:37:43;14.10;94.60
1680;DHT22;838;51.794;12.258;2022-10-22T04:40:09;14.20;93.90
1680;DHT22;838;51.794;12.258;2022-10-22T04:42:35;14.20;94.10
1680;DHT22;838;51.794;12.258;2022-10-22T04:45:01;14.20;94.40
1680;DHT22;838;51.794;12.258;2022-10-22T04:47:26;14.30;94.20
1680;DHT22;838;51.794;12.258;2022-10-22T04:49:52;14.40;93.80
1680;DHT22;838;51.794;12.258;2022-10-22T04:52:18;14.20;94.20
1680;DHT22;838;51.794;12.258;2022-10-22T04:54:43;14.10;94.70
1680;DHT22;838;51.794;12.258;2022-10-22T04:57:09;14.10;95.10
1680;DHT22;838;51.794;12.258;2022-10-22T04:59:35;14.10;95.40
1680;DHT22;838;51.794;12.258;2022-10-22T05:02:00;14.20;95.40
1680;DHT22;838;51.794;12.258;2022-10-22T05:04:26;14.50;94.30
1680;DHT22;838;51.794;12.258;2022-10-22T05:06:52;14.80;94.00
1680;DHT22;838;51.794;12.258;2022-10-22T05:09:19;15.00;91.60
1680;DHT22;838;51.794;12.258;2022-10-22T05:11:46;15.10;91.70
1680;DHT22;838;51.794;12.258;2022-10-22T05:14:21;15.30;90.50
1680;DHT22;838;51.794;12.258;2022-10-22T05:16:47;15.40;90.00
1680;DHT22;838;51.794;12.258;2022-10-22T05:19:31;15.70;87.20
1680;DHT22;838;51.794;12.258;2022-10-22T05:21:59;15.90;85.10
1680;DHT22;838;51.794;12.258;2022-10-22T05:24:26;16.00;82.80
1680;DHT22;838;51.794;12.258;2022-10-22T05:26:53;16.10;82.10
1680;DHT22;838;51.794;12.258;2022-10-22T05:29:19;16.10;80.90
1680;DHT22;838;51.794;12.258;2022-10-22T05:31:45;16.20;79.80
1680;DHT22;838;51.794;12.258;2022-10-22T05:34:11;16.20;79.70
1680;DHT22;838;51.794;12.258;2022-10-22T05:36:37;16.30;79.30
1680;DHT22;838;51.794;12.258;2022-10-22T05:39:03;16.20;78.40
1680;DHT22;838;51.794;12.258;2022-10-22T05:41:29;16.30;78.50
1680;DHT22;838;51.794;12.258;2022-10-22T05:43:56;16.20;77.60
1680;DHT22;838;51.794;12.258;2022-10-22T05:46:23;16.30;78.40
1680;DHT22;838;51.794;12.258;2022-10-22T05:48:57;16.20;78.70
1680;DHT22;838;51.794;12.258;2022-10-22T05:51:25;16.10;79.00
1680;DHT22;838;51.794;12.258;2022-10-22T05:53:53;15.70;81.00
1680;DHT22;838;51.794;12.258;2022-10-22T05:56:19;15.30;85.30
1680;DHT22;838;51.794;12.258;2022-10-22T05:58:45;15.20;85.20
1680;DHT22;838;51.794;12.258;2022-10-22T06:03:47;15.60;84.30
1680;DHT22;838;51.794;12.258;2022-10-22T06:11:47;16.20;80.50
1680;DHT22;838;51.794;12.258;2022-10-22T06:14:13;16.20;77.00
1680;DHT22;838;51.794;12.258;2022-10-22T06:16:39;16.00;77.20
1680;DHT22;838;51.794;12.258;2022-10-22T06:19:06;15.50;81.70
1680;DHT22;838;51.794;12.258;2022-10-22T06:21:32;15.40;85.30
1680;DHT22;838;51.794;12.258;2022-10-22T06:23:59;15.30;85.90
1680;DHT22;838;51.794;12.258;2022-10-22T06:26:25;15.20;89.00
1680;DHT22;838;51.794;12.258;2022-10-22T06:28:51;15.40;88.70
1680;DHT22;838;51.794;12.258;2022-10-22T06:31:17;15.70;86.90
1680;DHT22;838;51.794;12.258;2022-10-22T06:33:43;15.90;84.10
1680;DHT22;838;51.794;12.258;2022-10-22T06:36:11;16.20;82.70
1680;DHT22;838;51.794;12.258;2022-10-22T06:38:37;16.20;82.90
1680;DHT22;838;51.794;12.258;2022-10-22T06:41:08;16.40;81.70
1680;DHT22;838;51.794;12.258;2022-10-22T06:43:33;16.50;79.60
1680;DHT22;838;51.794;12.258;2022-10-22T06:46:05;16.60;78.40
1680;DHT22;838;51.794;12.258;2022-10-22T06:48:32;16.60;78.80
1680;DHT22;838;51.794;12.258;2022-10-22T06:51:03;16.40;78.30
1680;DHT22;838;51.794;12.258;2022-10-22T06:53:29;16.30;81.00
1680;DHT22;838;51.794;12.258;2022-10-22T06:55:55;15.90;83.00
1680;DHT22;838;51.794;12.258;2022-10-22T06:58:20;15.70;86.10
1680;DHT22;838;51.794;12.258;2022-10-22T07:00:46;15.50;88.60
1680;DHT22;838;51.794;12.258;2022-10-22T07:03:13;15.50;88.20
1680;DHT22;838;51.794;12.258;2022-10-22T07:05:39;15.40;90.10
1680;DHT22;838;51.794;12.258;2022-10-22T07:08:05;15.20;91.20
1680;DHT22;838;51.794;12.258;2022-10-22T07:10:31;15.00;92.60
1680;DHT22;838;51.794;12.258;2022-10-22T07:12:57;14.90;93.30
1680;DHT22;838;51.794;12.258;2022-10-22T07:15:23;14.90;93.80
1680;DHT22;838;51.794;12.258;2022-10-22T07:17:49;15.00;94.40
1680;DHT22;838;51.794;12.258;2022-10-22T07:20:17;15.10;94.70
1680;DHT22;838;51.794;12.258;2022-10-22T07:22:43;15.30;94.70
1680;DHT22;838;51.794;12.258;2022-10-22T07:25:10;15.70;93.80
1680;DHT22;838;51.794;12.258;2022-10-22T07:27:35;15.90;93.60
1680;DHT22;838;51.794;12.258;2022-10-22T07:30:02;16.10;92.70
1680;DHT22;838;51.794;12.258;2022-10-22T07:32:27;16.20;92.40
1680;DHT22;838;51.794;12.258;2022-10-22T07:34:53;16.40;92.40
1680;DHT22;838;51.794;12.258;2022-10-22T07:37:19;16.40;92.10
1680;DHT22;838;51.794;12.258;2022-10-22T07:39:47;16.50;91.70
1680;DHT22;838;51.794;12.258;2022-10-22T07:42:13;16.60;92.00
1680;DHT22;838;51.794;12.258;2022-10-22T07:44:38;16.70;92.00
1680;DHT22;838;51.794;12.258;2022-10-22T07:47:04;16.80;91.80
1680;DHT22;838;51.794;12.258;2022-10-22T07:49:29;17.10;92.00
1680;DHT22;838;51.794;12.258;2022-10-22T07:51:55;17.40;90.50
1680;DHT22;838;51.794;12.258;2022-10-22T07:54:22;17.50;89.40
1680;DHT22;838;51.794;12.258;2022-10-22T07:56:48;17.40;89.50
1680;DHT22;838;51.794;12.258;2022-10-22T07:59:13;17.50;90.10
1680;DHT22;838;51.794;12.258;2022-10-22T08:01:39;17.60;89.80
1680;DHT22;838;51.794;12.258;2022-10-22T08:04:04;17.70;88.60
1680;DHT22;838;51.794;12.258;2022-10-22T08:06:33;17.70;86.70
1680;DHT22;838;51.794;12.258;2022-10-22T08:08:59;17.80;88.50
1680;DHT22;838;51.794;12.258;2022-10-22T08:11:25;17.90;85.90
1680;DHT22;838;51.794;12.258;2022-10-22T08:13:51;17.90;87.10
1680;DHT22;838;51.794;12.258;2022-10-22T08:16:18;17.90;85.70
1680;DHT22;838;51.794;12.258;2022-10-22T08:18:44;17.90;86.00
1680;DHT22;838;51.794;12.258;2022-10-22T08:21:11;18.00;86.00
1680;DHT22;838;51.794;12.258;2022-10-22T08:23:37;18.10;85.40
1680;DHT22;838;51.794;12.258;2022-10-22T08:26:03;18.40;84.20
1680;DHT22;838;51.794;12.258;2022-10-22T08:28:29;18.60;83.00
1680;DHT22;838;51.794;12.258;2022-10-22T08:30:57;18.70;81.20
1680;DHT22;838;51.794;12.258;2022-10-22T08:33:22;18.80;79.70
1680;DHT22;838;51.794;12.258;2022-10-22T08:35:50;19.00;78.10
1680;DHT22;838;51.794;12.258;2022-10-22T08:38:16;19.00;78.20
1680;DHT22;838;51.794;12.258;2022-10-22T08:40:43;18.90;81.50
1680;DHT22;838;51.794;12.258;2022-10-22T08:50:58;18.90;82.30
1680;DHT22;838;51.794;12.258;2022-10-22T08:53:40;19.30;82.10
1680;DHT22;838;51.794;12.258;2022-10-22T08:56:08;19.60;76.90
1680;DHT22;838;51.794;12.258;2022-10-22T08:58:58;19.60;76.70
1680;DHT22;838;51.794;12.258;2022-10-22T09:01:36;19.70;74.40
1680;DHT22;838;51.794;12.258;2022-10-22T09:06:51;19.70;75.10
1680;DHT22;838;51.794;12.258;2022-10-22T09:09:19;19.40;77.70
1680;DHT22;838;51.794;12.258;2022-10-22T09:11:50;19.40;77.70
1680;DHT22;838;51.794;12.258;2022-10-22T09:14:19;19.30;79.30
1680;DHT22;838;51.794;12.258;2022-10-22T09:19:52;19.00;83.00
1680;DHT22;838;51.794;12.258;2022-10-22T09:22:54;18.90;84.40
1680;DHT22;838;51.794;12.258;2022-10-22T09:25:29;18.90;83.70
1680;DHT22;838;51.794;12.258;2022-10-22T09:27:55;19.00;83.00
1680;DHT22;838;51.794;12.258;2022-10-22T09:30:27;19.20;81.30
1680;DHT22;838;51.794;12.258;2022-10-22T09:35:24;19.10;80.40
1680;DHT22;838;51.794;12.258;2022-10-22T09:37:54;19.20;78.60
1680;DHT22;838;51.794;12.258;2022-10-22T09:40:23;19.00;79.70
1680;DHT22;838;51.794;12.258;2022-10-22T09:42:48;18.80;82.20
1680;DHT22;838;51.794;12.258;2022-10-22T09:45:20;18.70;84.60
1680;DHT22;838;51.794;12.258;2022-10-22T09:47:46;18.70;87.20
1680;DHT22;838;51.794;12.258;2022-10-22T09:50:26;18.90;86.50
1680;DHT22;838;51.794;12.258;2022-10-22T09:55:41;19.30;84.30
1680;DHT22;838;51.794;12.258;2022-10-22T09:58:11;19.40;83.80
1680;DHT22;838;51.794;12.258;2022-10-22T10:00:39;19.30;84.80
1680;DHT22;838;51.794;12.258;2022-10-22T10:03:05;19.40;85.60
1680;DHT22;838;51.794;12.258;2022-10-22T10:05:34;19.40;80.40
1680;DHT22;838;51.794;12.258;2022-10-22T10:08:12;19.50;83.40
1680;DHT22;838;51.794;12.258;2022-10-22T10:28:24;20.30;69.20
1680;DHT22;838;51.794;12.258;2022-10-22T10:33:56;20.70;65.30
1680;DHT22;838;51.794;12.258;2022-10-22T10:39:02;20.70;60.00
1680;DHT22;838;51.794;12.258;2022-10-22T10:44:26;20.90;60.60
1680;DHT22;838;51.794;12.258;2022-10-22T10:49:42;21.00;58.60
1680;DHT22;838;51.794;12.258;2022-10-22T10:52:44;21.00;60.40
1680;DHT22;838;51.794;12.258;2022-10-22T10:55:29;21.10;54.20
1680;DHT22;838;51.794;12.258;2022-10-22T10:58:20;21.10;55.50
1680;DHT22;838;51.794;12.258;2022-10-22T11:00:56;21.20;53.60
1680;DHT22;838;51.794;12.258;2022-10-22T11:03:33;21.20;56.50
1680;DHT22;838;51.794;12.258;2022-10-22T11:06:08;21.30;53.20
1680;DHT22;838;51.794;12.258;2022-10-22T11:08:43;21.10;55.50
1680;DHT22;838;51.794;12.258;2022-10-22T11:11:18;21.00;56.10
1680;DHT22;838;51.794;12.258;2022-10-22T11:13:56;21.10;55.80
1680;DHT22;838;51.794;12.258;2022-10-22T11:16:30;21.10;56.50
1680;DHT22;838;51.794;12.258;2022-10-22T11:19:12;21.40;53.40
1680;DHT22;838;51.794;12.258;2022-10-22T11:22:10;21.40;46.10
1680;DHT22;838;51.794;12.258;2022-10-22T11:24:52;21.10;52.50
1680;DHT22;838;51.794;12.258;2022-10-22T11:27:36;20.80;51.80
1680;DHT22;838;51.794;12.258;2022-10-22T11:30:14;20.80;55.70
1680;DHT22;838;51.794;12.258;2022-10-22T11:32:42;20.90;56.60
1680;DHT22;838;51.794;12.258;2022-10-22T11:35:31;21.20;56.00
1680;DHT22;838;51.794;12.258;2022-10-22T11:37:59;21.40;47.10
1680;DHT22;838;51.794;12.258;2022-10-22T11:40:33;21.60;48.40
1680;DHT22;838;51.794;12.258;2022-10-22T11:45:37;22.30;41.50
1680;DHT22;838;51.794;12.258;2022-10-22T11:48:17;22.30;34.10
1680;DHT22;838;51.794;12.258;2022-10-22T11:50:55;22.30;38.80
1680;DHT22;838;51.794;12.258;2022-10-22T11:55:56;22.20;38.60
1680;DHT22;838;51.794;12.258;2022-10-22T11:58:40;22.20;37.30
1680;DHT22;838;51.794;12.258;2022-10-22T12:17:14;22.80;29.40
1680;DHT22;838;51.794;12.258;2022-10-22T12:19:46;22.80;33.00
1680;DHT22;838;51.794;12.258;2022-10-22T12:22:15;22.60;36.00
1680;DHT22;838;51.794;12.258;2022-10-22T12:24:53;22.50;38.80
1680;DHT22;838;51.794;12.258;2022-10-22T12:27:32;22.30;37.90
1680;DHT22;838;51.794;12.258;2022-10-22T12:30:00;22.10;40.20
1680;DHT22;838;51.794;12.258;2022-10-22T12:32:38;22.10;40.80
1680;DHT22;838;51.794;12.258;2022-10-22T12:35:08;21.80;41.60
1680;DHT22;838;51.794;12.258;2022-10-22T12:37:35;21.70;41.70
1680;DHT22;838;51.794;12.258;2022-10-22T12:40:21;21.60;38.70
1680;DHT22;838;51.794;12.258;2022-10-22T12:42:49;21.50;43.10
1680;DHT22;838;51.794;12.258;2022-10-22T12:45:19;21.50;42.20
1680;DHT22;838;51.794;12.258;2022-10-22T12:47:50;21.40;43.70
1680;DHT22;838;51.794;12.258;2022-10-22T12:50:22;21.30;44.40
1680;DHT22;838;51.794;12.258;2022-10-22T12:52:53;21.40;42.60
1680;DHT22;838;51.794;12.258;2022-10-22T12:55:22;21.40;41.10
1680;DHT22;838;51.794;12.258;2022-10-22T12:57:50;21.50;41.30
1680;DHT22;838;51.794;12.258;2022-10-22T13:00:31;21.50;40.60
1680;DHT22;838;51.794;12.258;2022-10-22T13:02:58;21.40;39.20
1680;DHT22;838;51.794;12.258;2022-10-22T13:05:29;21.30;41.00
1680;DHT22;838;51.794;12.258;2022-10-22T13:08:03;21.40;40.20
1680;DHT22;838;51.794;12.258;2022-10-22T13:10:33;21.40;40.60
1680;DHT22;838;51.794;12.258;2022-10-22T13:12:59;21.60;38.30
1680;DHT22;838;51.794;12.258;2022-10-22T13:20:28;21.90;29.00
1680;DHT22;838;51.794;12.258;2022-10-22T13:25:35;21.90;26.60
1680;DHT22;838;51.794;12.258;2022-10-22T13:30:36;21.90;26.40
1680;DHT22;838;51.794;12.258;2022-10-22T13:33:20;22.00;24.00
1680;DHT22;838;51.794;12.258;2022-10-22T13:35:47;22.00;23.90
1680;DHT22;838;51.794;12.258;2022-10-22T13:38:21;22.00;26.00
1680;DHT22;838;51.794;12.258;2022-10-22T13:40:47;21.80;26.10
1680;DHT22;838;51.794;12.258;2022-10-22T13:43:14;21.80;26.30
1680;DHT22;838;51.794;12.258;2022-10-22T13:45:40;21.70;28.30
1680;DHT22;838;51.794;12.258;2022-10-22T13:48:12;21.80;27.50
1680;DHT22;838;51.794;12.258;2022-10-22T13:50:38;21.70;28.50
1680;DHT22;838;51.794;12.258;2022-10-22T13:53:03;21.70;28.50
1680;DHT22;838;51.794;12.258;2022-10-22T13:55:30;21.70;28.20
1680;DHT22;838;51.794;12.258;2022-10-22T13:58:03;21.80;27.70
1680;DHT22;838;51.794;12.258;2022-10-22T14:00:30;21.90;26.70
1680;DHT22;838;51.794;12.258;2022-10-22T14:03:00;21.70;28.50
1680;DHT22;838;51.794;12.258;2022-10-22T14:05:25;21.60;29.40
1680;DHT22;838;51.794;12.258;2022-10-22T14:07:51;21.70;29.40
1680;DHT22;838;51.794;12.258;2022-10-22T14:10:23;21.90;28.50
1680;DHT22;838;51.794;12.258;2022-10-22T14:12:49;21.90;28.70
1680;DHT22;838;51.794;12.258;2022-10-22T14:15:17;21.70;27.20
1680;DHT22;838;51.794;12.258;2022-10-22T14:17:47;21.50;28.00
1680;DHT22;838;51.794;12.258;2022-10-22T14:20:25;21.20;29.10
1680;DHT22;838;51.794;12.258;2022-10-22T14:22:52;21.30;29.60
1680;DHT22;838;51.794;12.258;2022-10-22T14:25:20;21.30;28.60
1680;DHT22;838;51.794;12.258;2022-10-22T14:27:47;21.30;27.60
1680;DHT22;838;51.794;12.258;2022-10-22T14:30:15;21.20;27.80
1680;DHT22;838;51.794;12.258;2022-10-22T14:32:41;21.20;28.40
1680;DHT22;838;51.794;12.258;2022-10-22T14:35:13;21.40;27.00
1680;DHT22;838;51.794;12.258;2022-10-22T14:37:39;21.20;26.40
1680;DHT22;838;51.794;12.258;2022-10-22T14:40:05;21.10;27.70
1680;DHT22;838;51.794;12.258;2022-10-22T14:42:33;21.00;28.00
1680;DHT22;838;51.794;12.258;2022-10-22T14:45:03;20.90;27.70
1680;DHT22;838;51.794;12.258;2022-10-22T14:47:29;20.70;28.80
1680;DHT22;838;51.794;12.258;2022-10-22T14:49:54;20.50;30.30
1680;DHT22;838;51.794;12.258;2022-10-22T14:52:20;20.20;31.20
1680;DHT22;838;51.794;12.258;2022-10-22T14:54:46;20.10;33.00
1680;DHT22;838;51.794;12.258;2022-10-22T14:57:13;20.10;32.80
1680;DHT22;838;51.794;12.258;2022-10-22T14:59:39;20.10;35.00
1680;DHT22;838;51.794;12.258;2022-10-22T15:02:07;20.20;32.40
1680;DHT22;838;51.794;12.258;2022-10-22T15:04:33;20.10;32.20
1680;DHT22;838;51.794;12.258;2022-10-22T15:06:58;20.00;34.60
1680;DHT22;838;51.794;12.258;2022-10-22T15:09:24;20.00;34.00
1680;DHT22;838;51.794;12.258;2022-10-22T15:11:50;20.10;34.20
1680;DHT22;838;51.794;12.258;2022-10-22T15:14:15;20.00;34.50
1680;DHT22;838;51.794;12.258;2022-10-22T15:16:41;20.00;34.00
1680;DHT22;838;51.794;12.258;2022-10-22T15:19:07;20.00;34.50
1680;DHT22;838;51.794;12.258;2022-10-22T15:21:32;20.00;34.30
1680;DHT22;838;51.794;12.258;2022-10-22T15:23:59;20.00;33.40
1680;DHT22;838;51.794;12.258;2022-10-22T15:26:25;20.00;34.20
1680;DHT22;838;51.794;12.258;2022-10-22T15:28:52;19.90;34.70
1680;DHT22;838;51.794;12.258;2022-10-22T15:31:50;19.70;35.90
1680;DHT22;838;51.794;12.258;2022-10-22T15:34:20;19.60;37.00
1680;DHT22;838;51.794;12.258;2022-10-22T15:36:47;19.60;38.10
1680;DHT22;838;51.794;12.258;2022-10-22T15:39:12;19.50;38.30
1680;DHT22;838;51.794;12.258;2022-10-22T15:41:38;19.50;39.60
1680;DHT22;838;51.794;12.258;2022-10-22T15:44:04;19.40;40.60
1680;DHT22;838;51.794;12.258;2022-10-22T15:46:33;19.30;40.90
1680;DHT22;838;51.794;12.258;2022-10-22T15:48:59;19.30;41.30
1680;DHT22;838;51.794;12.258;2022-10-22T15:51:25;19.20;42.50
1680;DHT22;838;51.794;12.258;2022-10-22T15:53:56;19.00;44.30
1680;DHT22;838;51.794;12.258;2022-10-22T15:56:23;18.90;46.80
1680;DHT22;838;51.794;12.258;2022-10-22T15:59:00;18.80;49.40
1680;DHT22;838;51.794;12.258;2022-10-22T16:01:28;18.80;50.00
1680;DHT22;838;51.794;12.258;2022-10-22T16:03:54;18.70;50.30
1680;DHT22;838;51.794;12.258;2022-10-22T16:06:43;18.50;53.20
1680;DHT22;838;51.794;12.258;2022-10-22T16:09:14;18.50;54.50
1680;DHT22;838;51.794;12.258;2022-10-22T16:11:40;18.30;57.00
1680;DHT22;838;51.794;12.258;2022-10-22T16:14:07;18.20;60.80
1680;DHT22;838;51.794;12.258;2022-10-22T16:16:35;18.20;61.90
1680;DHT22;838;51.794;12.258;2022-10-22T16:19:01;18.20;61.80
1680;DHT22;838;51.794;12.258;2022-10-22T16:21:27;18.20;61.60
1680;DHT22;838;51.794;12.258;2022-10-22T16:23:53;18.20;61.20
1680;DHT22;838;51.794;12.258;2022-10-22T16:26:19;18.00;63.20
1680;DHT22;838;51.794;12.258;2022-10-22T16:28:46;17.90;66.50
1680;DHT22;838;51.794;12.258;2022-10-22T16:31:14;17.80;68.50
1680;DHT22;838;51.794;12.258;2022-10-22T16:33:40;17.70;69.30
1680;DHT22;838;51.794;12.258;2022-10-22T16:36:11;17.70;69.60
1680;DHT22;838;51.794;12.258;2022-10-22T16:38:37;17.70;69.10
1680;DHT22;838;51.794;12.258;2022-10-22T16:41:19;17.70;69.70
1680;DHT22;838;51.794;12.258;2022-10-22T16:43:46;17.80;68.50
1680;DHT22;838;51.794;12.258;2022-10-22T16:46:16;17.80;68.40
1680;DHT22;838;51.794;12.258;2022-10-22T16:48:46;17.70;68.80
1680;DHT22;838;51.794;12.258;2022-10-22T16:51:14;17.80;66.50
1680;DHT22;838;51.794;12.258;2022-10-22T16:53:41;17.80;66.60
1680;DHT22;838;51.794;12.258;2022-10-22T16:56:15;17.80;66.90
1680;DHT22;838;51.794;12.258;2022-10-22T16:58:49;17.80;65.70
1680;DHT22;838;51.794;12.258;2022-10-22T17:01:16;17.80;66.30
1680;DHT22;838;51.794;12.258;2022-10-22T17:03:42;17.70;66.80
1680;DHT22;838;51.794;12.258;2022-10-22T17:06:08;17.70;67.30
1680;DHT22;838;51.794;12.258;2022-10-22T17:08:34;17.60;67.90
1680;DHT22;838;51.794;12.258;2022-10-22T17:11:09;17.50;68.80
1680;DHT22;838;51.794;12.258;2022-10-22T17:13:35;17.30;70.40
1680;DHT22;838;51.794;12.258;2022-10-22T17:16:05;17.20;71.00
1680;DHT22;838;51.794;12.258;2022-10-22T17:18:31;17.30;70.60
1680;DHT22;838;51.794;12.258;2022-10-22T17:20:57;17.30;70.00
1680;DHT22;838;51.794;12.258;2022-10-22T17:23:24;17.30;70.80
1680;DHT22;838;51.794;12.258;2022-10-22T17:25:58;17.30;70.30
1680;DHT22;838;51.794;12.258;2022-10-22T17:28:24;17.30;70.10
1680;DHT22;838;51.794;12.258;2022-10-22T17:30:50;17.30;69.40
1680;DHT22;838;51.794;12.258;2022-10-22T17:33:16;17.20;70.60
1680;DHT22;838;51.794;12.258;2022-10-22T17:35:41;17.20;69.80
1680;DHT22;838;51.794;12.258;2022-10-22T17:38:07;17.30;69.60
1680;DHT22;838;51.794;12.258;2022-10-22T17:40:36;17.40;68.10
1680;DHT22;838;51.794;12.258;2022-10-22T17:43:03;17.50;65.90
1680;DHT22;838;51.794;12.258;2022-10-22T17:45:29;17.50;67.30
1680;DHT22;838;51.794;12.258;2022-10-22T17:47:54;17.50;67.20
1680;DHT22;838;51.794;12.258;2022-10-22T17:50:21;17.50;66.50
1680;DHT22;838;51.794;12.258;2022-10-22T17:52:47;17.40;68.00
1680;DHT22;838;51.794;12.258;2022-10-22T17:55:13;17.40;68.00
1680;DHT22;838;51.794;12.258;2022-10-22T17:57:38;17.40;66.50
1680;DHT22;838;51.794;12.258;2022-10-22T18:00:05;17.40;67.90
1680;DHT22;838;51.794;12.258;2022-10-22T18:02:31;17.30;69.00
1680;DHT22;838;51.794;12.258;2022-10-22T18:04:57;17.30;67.50
1680;DHT22;838;51.794;12.258;2022-10-22T18:07:22;17.40;66.60